Time;durP1;ratioP1;P1;durP2;ratioP2;P2;SDS_P1;SDS_P2;PMS_P1;PMS_P2;Temp;Humidity;BMP_temperature;BMP_pressure;BME280_temperature;BME280_humidity;BME280_pressure;Samples;Min_cycle;Max_cycle;Signal;HPM_P1;HPM_P2
2022/09/02 00:00:51;;;;;;;1.02;0.80;;;;;;;;;;5082546;28;20051;-90
2022/09/02 00:03:17;;;;;;;1.35;0.70;;;;;;;;;;5058328;28;20066;-89
2022/09/02 00:05:44;;;;;;;1.40;0.77;;;;;;;;;;5076478;28;20079;-85
2022/09/02 00:08:10;;;;;;;1.83;0.88;;;;;;;;;;5077885;28;20055;-91
2022/09/02 00:10:38;;;;;;;1.35;0.90;;;;;;;;;;5074985;28;20052;-91
2022/09/02 00:13:05;;;;;;;1.67;0.70;;;;;;;;;;5074378;28;20111;-88
2022/09/02 00:15:32;;;;;;;4.72;1.00;;;;;;;;;;5088541;28;20506;-90
2022/09/02 00:17:59;;;;;;;0.60;0.60;;;;;;;;;;5078841;28;20052;-90
2022/09/02 00:20:26;;;;;;;2.50;0.88;;;;;;;;;;5058419;28;20051;-90
2022/09/02 00:22:52;;;;;;;1.17;0.60;;;;;;;;;;5081054;28;20134;-88
2022/09/02 00:25:18;;;;;;;;;;;;;;;;;;5080924;28;20048;-90
2022/09/02 00:27:44;;;;;;;2.50;0.90;;;;;;;;;;5090769;28;19946;-90
2022/09/02 00:30:11;;;;;;;3.97;0.80;;;;;;;;;;5112456;27;20578;-90
2022/09/02 00:32:37;;;;;;;0.80;0.80;;;;;;;;;;5074402;28;20039;-88
2022/09/02 00:35:04;;;;;;;0.63;0.60;;;;;;;;;;5066338;28;20510;-89
2022/09/02 00:37:30;;;;;;;1.00;0.90;;;;;;;;;;5080520;28;20055;-87
2022/09/02 00:39:56;;;;;;;;;;;;;;;;;;5076185;28;20048;-90
2022/09/02 00:42:23;;;;;;;0.73;0.70;;;;;;;;;;5072641;28;19974;-87
2022/09/02 00:44:49;;;;;;;1.10;0.75;;;;;;;;;;5091384;28;20056;-85
2022/09/02 00:47:15;;;;;;;1.23;0.80;;;;;;;;;;5073112;28;20044;-88
2022/09/02 00:49:44;;;;;;;0.98;0.90;;;;;;;;;;5074208;28;20481;-90
2022/09/02 00:52:21;;;;;;;1.38;0.95;;;;;;;;;;5074002;28;20611;-89
2022/09/02 00:54:53;;;;;;;1.52;0.88;;;;;;;;;;5068538;28;20043;-89
2022/09/02 00:57:22;;;;;;;1.30;1.02;;;;;;;;;;5082955;28;20055;-88
2022/09/02 01:00:00;;;;;;;1.20;0.90;;;;;;;;;;5093871;28;20075;-89
2022/09/02 01:02:30;;;;;;;0.68;0.68;;;;;;;;;;5073046;28;20071;-86
2022/09/02 01:04:57;;;;;;;1.98;1.00;;;;;;;;;;5072906;28;20048;-89
2022/09/02 01:07:28;;;;;;;3.13;0.85;;;;;;;;;;5073346;28;20489;-88
2022/09/02 01:09:54;;;;;;;2.22;0.80;;;;;;;;;;5073548;28;20047;-88
2022/09/02 01:12:21;;;;;;;3.05;0.90;;;;;;;;;;5073415;28;20056;-89
2022/09/02 01:14:47;;;;;;;0.98;0.88;;;;;;;;;;5073999;28;20133;-89
2022/09/02 01:17:18;;;;;;;0.80;0.80;;;;;;;;;;5084793;28;20245;-87
2022/09/02 01:19:48;;;;;;;1.58;0.88;;;;;;;;;;5073909;28;20060;-89
2022/09/02 01:22:24;;;;;;;1.52;0.90;;;;;;;;;;5077473;28;20085;-87
2022/09/02 01:24:51;;;;;;;0.98;0.82;;;;;;;;;;5062088;28;20131;-88
2022/09/02 01:27:18;;;;;;;1.00;0.90;;;;;;;;;;5055657;28;20048;-88
2022/09/02 01:29:45;;;;;;;0.70;0.70;;;;;;;;;;5073143;28;20055;-87
2022/09/02 01:32:11;;;;;;;3.75;1.10;;;;;;;;;;5072161;28;20482;-88
2022/09/02 01:34:37;;;;;;;0.90;0.80;;;;;;;;;;5087550;28;20044;-88
2022/09/02 01:37:04;;;;;;;0.80;0.80;;;;;;;;;;5093464;28;20039;-88
2022/09/02 01:39:30;;;;;;;0.60;0.60;;;;;;;;;;5126197;28;20544;-88
2022/09/02 01:41:56;;;;;;;1.27;0.90;;;;;;;;;;5093625;28;20762;-84
2022/09/02 01:44:26;;;;;;;0.75;0.75;;;;;;;;;;5127204;28;20051;-89
2022/09/02 01:46:52;;;;;;;4.28;0.98;;;;;;;;;;5126377;28;20047;-88
2022/09/02 01:49:19;;;;;;;2.30;1.00;;;;;;;;;;5092988;28;20050;-88
2022/09/02 01:51:45;;;;;;;1.05;0.80;;;;;;;;;;5093916;28;20039;-88
2022/09/02 01:54:11;;;;;;;1.00;0.90;;;;;;;;;;5092199;28;20040;-88
2022/09/02 01:56:37;;;;;;;1.00;0.82;;;;;;;;;;5110334;28;20594;-88
2022/09/02 01:59:03;;;;;;;;;;;;;;;;;;5093744;28;20055;-89
2022/09/02 02:01:29;;;;;;;0.60;0.60;;;;;;;;;;5069466;28;19920;-88
2022/09/02 02:03:55;;;;;;;2.28;0.80;;;;;;;;;;5107359;28;20102;-88
2022/09/02 02:06:21;;;;;;;;;;;;;;;;;;5107270;28;20052;-88
2022/09/02 02:08:48;;;;;;;4.97;1.13;;;;;;;;;;5072463;28;19920;-88
2022/09/02 02:11:22;;;;;;;0.98;0.93;;;;;;;;;;5090899;28;20512;-87
2022/09/02 02:13:48;;;;;;;7.50;1.17;;;;;;;;;;5093501;28;20051;-88
2022/09/02 02:16:14;;;;;;;0.80;0.80;;;;;;;;;;5092890;28;20477;-88
2022/09/02 02:18:40;;;;;;;;;;;;;;;;;;5097461;28;20069;-89
2022/09/02 02:21:06;;;;;;;3.90;1.30;;;;;;;;;;5096492;28;19924;-87
2022/09/02 02:23:32;;;;;;;;;;;;;;;;;;5083462;28;20417;-87
2022/09/02 02:25:58;;;;;;;2.65;1.10;;;;;;;;;;5093810;28;19920;-87
2022/09/02 02:28:24;;;;;;;;;;;;;;;;;;5097327;28;20113;-88
2022/09/02 02:30:50;;;;;;;0.85;0.70;;;;;;;;;;5095863;28;20387;-88
2022/09/02 02:33:17;;;;;;;2.13;1.38;;;;;;;;;;5096385;28;20051;-88
2022/09/02 02:35:43;;;;;;;1.58;1.10;;;;;;;;;;5091760;28;20051;-87
2022/09/02 02:38:09;;;;;;;1.58;1.00;;;;;;;;;;5109427;28;20067;-88
2022/09/02 02:40:35;;;;;;;;;;;;;;;;;;5091370;28;20609;-86
2022/09/02 02:43:01;;;;;;;0.88;0.88;;;;;;;;;;5130885;27;19924;-85
2022/09/02 02:45:27;;;;;;;1.60;1.30;;;;;;;;;;5094948;28;20063;-87
2022/09/02 02:47:53;;;;;;;;;;;;;;;;;;5079713;28;20138;-88
2022/09/02 02:50:20;;;;;;;1.77;1.23;;;;;;;;;;5096210;28;20054;-87
2022/09/02 02:52:47;;;;;;;1.60;1.10;;;;;;;;;;5095540;28;20043;-88
2022/09/02 02:55:14;;;;;;;1.70;1.13;;;;;;;;;;5130145;27;20511;-87
2022/09/02 02:57:41;;;;;;;1.23;1.00;;;;;;;;;;5114543;28;20054;-88
2022/09/02 03:00:08;;;;;;;2.63;1.10;;;;;;;;;;5095888;28;20055;-88
2022/09/02 03:02:34;;;;;;;1.65;1.20;;;;;;;;;;5095487;28;20058;-87
2022/09/02 03:05:00;;;;;;;;;;;;;;;;;;5097044;28;20067;-88
2022/09/02 03:07:26;;;;;;;2.47;1.20;;;;;;;;;;5095317;28;19919;-88
2022/09/02 03:09:53;;;;;;;2.03;1.05;;;;;;;;;;5093274;28;20522;-88
2022/09/02 03:12:19;;;;;;;1.30;1.05;;;;;;;;;;5094886;28;20126;-87
2022/09/02 03:14:45;;;;;;;2.38;1.20;;;;;;;;;;5130348;27;20135;-89
2022/09/02 03:17:12;;;;;;;3.45;1.27;;;;;;;;;;5094498;28;20047;-88
2022/09/02 03:19:38;;;;;;;1.52;1.13;;;;;;;;;;5095786;28;20135;-89
2022/09/02 03:22:04;;;;;;;4.65;1.30;;;;;;;;;;5095703;28;20051;-88
2022/09/02 03:24:30;;;;;;;;;;;;;;;;;;5112074;28;20403;-87
2022/09/02 03:26:56;;;;;;;2.28;1.30;;;;;;;;;;5095547;28;20007;-88
2022/09/02 03:29:22;;;;;;;1.10;0.93;;;;;;;;;;5089862;28;20047;-88
2022/09/02 03:31:48;;;;;;;1.48;1.33;;;;;;;;;;5094133;28;20048;-87
2022/09/02 03:34:15;;;;;;;2.20;1.02;;;;;;;;;;5084331;28;20123;-88
2022/09/02 03:36:43;;;;;;;1.40;1.00;;;;;;;;;;5091294;28;20052;-88
2022/09/02 03:39:10;;;;;;;1.65;1.23;;;;;;;;;;5128196;27;20052;-84
2022/09/02 03:41:36;;;;;;;1.77;1.10;;;;;;;;;;5078778;28;20044;-89
2022/09/02 03:44:03;;;;;;;1.73;1.08;;;;;;;;;;5095785;28;20047;-88
2022/09/02 03:46:29;;;;;;;2.40;1.08;;;;;;;;;;5073754;28;20245;-88
2022/09/02 03:48:55;;;;;;;;;;;;;;;;;;5075780;28;20062;-87
2022/09/02 03:51:21;;;;;;;2.40;1.50;;;;;;;;;;5092694;28;19927;-88
2022/09/02 03:53:48;;;;;;;2.38;1.10;;;;;;;;;;5082436;28;20048;-87
2022/09/02 03:56:14;;;;;;;1.38;1.27;;;;;;;;;;5087905;28;20039;-88
2022/09/02 03:58:40;;;;;;;;;;;;;;;;;;5077718;28;20048;-87
2022/09/02 04:01:06;;;;;;;1.92;1.20;;;;;;;;;;5127002;27;19926;-87
2022/09/02 04:03:32;;;;;;;5.00;1.35;;;;;;;;;;5092942;28;20051;-88
2022/09/02 04:05:58;;;;;;;;;;;;;;;;;;5095758;28;20106;-88
2022/09/02 04:08:26;;;;;;;1.27;1.00;;;;;;;;;;5094051;28;19973;-87
2022/09/02 04:10:52;;;;;;;1.45;1.08;;;;;;;;;;5094854;28;20101;-87
2022/09/02 04:13:18;;;;;;;1.52;1.20;;;;;;;;;;5076827;28;20416;-89
2022/09/02 04:15:47;;;;;;;1.70;1.20;;;;;;;;;;5088869;28;20094;-87
2022/09/02 04:18:14;;;;;;;6.38;1.10;;;;;;;;;;5126355;27;20126;-85
2022/09/02 04:20:42;;;;;;;1.25;1.02;;;;;;;;;;5094664;28;20055;-87
2022/09/02 04:23:08;;;;;;;1.85;1.30;;;;;;;;;;5127036;27;20115;-88
2022/09/02 04:25:38;;;;;;;2.08;1.60;;;;;;;;;;5107777;28;20064;-88
2022/09/02 04:28:04;;;;;;;2.38;1.20;;;;;;;;;;5074281;28;20516;-88
2022/09/02 04:30:30;;;;;;;3.38;1.30;;;;;;;;;;5055793;28;20499;-87
2022/09/02 04:32:56;;;;;;;1.55;1.35;;;;;;;;;;5081544;28;20070;-89
2022/09/02 04:35:22;;;;;;;1.67;1.27;;;;;;;;;;5105697;28;20130;-88
2022/09/02 04:37:48;;;;;;;2.80;1.60;;;;;;;;;;5093409;28;20508;-87
2022/09/02 04:40:15;;;;;;;1.75;1.30;;;;;;;;;;5093627;28;20056;-84
2022/09/02 04:42:41;;;;;;;1.33;1.23;;;;;;;;;;5093902;28;20049;-86
2022/09/02 04:45:07;;;;;;;;;;;;;;;;;;5095120;28;20051;-89
2022/09/02 04:47:33;;;;;;;1.95;1.13;;;;;;;;;;5109491;28;20467;-87
2022/09/02 04:50:00;;;;;;;2.03;1.42;;;;;;;;;;5077501;28;20048;-88
2022/09/02 04:52:26;;;;;;;2.15;0.98;;;;;;;;;;5114474;27;20052;-87
2022/09/02 04:54:52;;;;;;;;;;;;;;;;;;5081158;28;20051;-87
2022/09/02 04:57:19;;;;;;;3.53;1.40;;;;;;;;;;5073438;28;20007;-86
2022/09/02 04:59:45;;;;;;;2.83;1.40;;;;;;;;;;5073728;28;20077;-88
2022/09/02 05:02:12;;;;;;;2.30;1.15;;;;;;;;;;5073473;28;20040;-88
2022/09/02 05:04:38;;;;;;;1.40;1.10;;;;;;;;;;5093162;28;20035;-89
2022/09/02 05:07:04;;;;;;;2.35;1.30;;;;;;;;;;5093817;28;20130;-87
2022/09/02 05:09:30;;;;;;;;;;;;;;;;;;5093038;28;20415;-88
2022/09/02 05:11:56;;;;;;;1.65;1.15;;;;;;;;;;5093805;28;20258;-88
2022/09/02 05:14:23;;;;;;;1.80;1.30;;;;;;;;;;5093476;28;20051;-88
2022/09/02 05:16:52;;;;;;;1.40;1.30;;;;;;;;;;5092962;28;20048;-87
2022/09/02 05:19:20;;;;;;;1.65;1.30;;;;;;;;;;5093071;28;20070;-84
2022/09/02 05:21:46;;;;;;;3.67;1.35;;;;;;;;;;5091812;28;20073;-87
2022/09/02 05:24:12;;;;;;;;;;;;;;;;;;5092649;28;20507;-87
2022/09/02 05:26:39;;;;;;;1.40;1.20;;;;;;;;;;5092803;28;19978;-88
2022/09/02 05:29:05;;;;;;;4.85;1.30;;;;;;;;;;5093122;28;20549;-87
2022/09/02 05:31:32;;;;;;;5.00;1.40;;;;;;;;;;5074830;28;20052;-88
2022/09/02 05:33:58;;;;;;;3.42;1.10;;;;;;;;;;5093475;28;20481;-87
2022/09/02 05:36:24;;;;;;;2.22;1.23;;;;;;;;;;5076133;28;20051;-87
2022/09/02 05:38:50;;;;;;;4.15;1.55;;;;;;;;;;5092744;28;20053;-88
2022/09/02 05:41:22;;;;;;;2.72;1.20;;;;;;;;;;5075115;28;20481;-88
2022/09/02 05:43:48;;;;;;;4.45;1.38;;;;;;;;;;5118224;28;20485;-88
2022/09/02 05:46:19;;;;;;;1.30;1.10;;;;;;;;;;5083027;28;20356;-88
2022/09/02 05:51:31;;;;;;;5.55;1.40;;;;;;;;;;5093965;28;20485;-87
2022/09/02 05:53:59;;;;;;;2.58;1.05;;;;;;;;;;5079715;28;20059;-88
2022/09/02 05:56:26;;;;;;;3.45;1.20;;;;;;;;;;5096887;28;20035;-88
2022/09/02 05:58:54;;;;;;;5.07;1.70;;;;;;;;;;5097603;28;20484;-87
2022/09/02 06:01:20;;;;;;;1.83;1.30;;;;;;;;;;5095695;28;20652;-85
2022/09/02 06:03:46;;;;;;;3.38;1.50;;;;;;;;;;5096808;28;20043;-86
2022/09/02 06:06:13;;;;;;;2.38;1.30;;;;;;;;;;5097236;28;20057;-88
2022/09/02 06:08:39;;;;;;;14.45;1.77;;;;;;;;;;5096054;28;20109;-88
2022/09/02 06:11:07;;;;;;;3.72;1.42;;;;;;;;;;5097193;28;20443;-88
2022/09/02 06:13:37;;;;;;;2.42;1.50;;;;;;;;;;5096796;28;20491;-88
2022/09/02 06:16:03;;;;;;;3.05;1.42;;;;;;;;;;5096357;28;20626;-88
2022/09/02 06:18:29;;;;;;;;;;;;;;;;;;5097067;28;20122;-88
2022/09/02 06:20:55;;;;;;;13.05;2.08;;;;;;;;;;5079852;28;20011;-87
2022/09/02 06:23:21;;;;;;;;;;;;;;;;;;5093362;28;20040;-83
2022/09/02 06:25:48;;;;;;;3.78;1.33;;;;;;;;;;5080359;28;19947;-88
2022/09/02 06:28:14;;;;;;;2.17;1.25;;;;;;;;;;5122548;27;20126;-87
2022/09/02 06:30:41;;;;;;;1.63;1.10;;;;;;;;;;5094940;28;20830;-86
2022/09/02 06:33:08;;;;;;;5.40;1.85;;;;;;;;;;5096258;28;20060;-88
2022/09/02 06:35:38;;;;;;;2.10;1.58;;;;;;;;;;5059271;28;20062;-88
2022/09/02 06:38:04;;;;;;;2.55;1.67;;;;;;;;;;5093173;28;20056;-88
2022/09/02 06:40:31;;;;;;;2.88;1.63;;;;;;;;;;5075492;28;20147;-87
2022/09/02 06:42:57;;;;;;;;;;;;;;;;;;5076613;28;20044;-87
2022/09/02 06:45:25;;;;;;;2.90;1.40;;;;;;;;;;5075862;28;19927;-84
2022/09/02 06:47:52;;;;;;;2.20;1.40;;;;;;;;;;5124803;27;20051;-87
2022/09/02 06:50:18;;;;;;;3.42;1.35;;;;;;;;;;5096065;28;20039;-87
2022/09/02 06:52:44;;;;;;;2.42;1.52;;;;;;;;;;5095038;28;20050;-88
2022/09/02 06:55:11;;;;;;;4.30;1.80;;;;;;;;;;5079531;28;20189;-87
2022/09/02 06:57:37;;;;;;;2.08;1.35;;;;;;;;;;5095684;28;20473;-88
2022/09/02 07:00:08;;;;;;;3.30;1.67;;;;;;;;;;5079268;28;20422;-88
2022/09/02 07:02:34;;;;;;;2.80;1.52;;;;;;;;;;5094060;28;20550;-85
2022/09/02 07:05:13;;;;;;;;;;;;;;;;;;5096030;28;20088;-81
2022/09/02 07:07:40;;;;;;;2.08;1.17;;;;;;;;;;5127562;27;20443;-81
2022/09/02 07:10:08;;;;;;;2.05;1.35;;;;;;;;;;5111984;28;20077;-81
2022/09/02 07:12:35;;;;;;;2.60;1.65;;;;;;;;;;5092015;28;20047;-83
2022/09/02 07:15:26;;;;;;;2.15;1.30;;;;;;;;;;5082729;28;20040;-77
2022/09/02 07:18:02;;;;;;;2.22;1.50;;;;;;;;;;5068420;28;20514;-80
2022/09/02 07:20:28;;;;;;;1.83;0.98;;;;;;;;;;5016356;28;20069;-80
2022/09/02 07:22:55;;;;;;;;;;;;;;;;;;5036835;28;20126;-81
2022/09/02 07:32:15;;;;;;;3.40;1.15;;;;;;;;;;5058689;28;20048;-83
2022/09/02 07:34:52;;;;;;;3.90;1.05;;;;;;;;;;5041010;28;20080;-78
2022/09/02 07:37:20;;;;;;;2.30;1.45;;;;;;;;;;5059389;28;20064;-82
2022/09/02 07:39:47;;;;;;;1.55;1.10;;;;;;;;;;5023910;28;20778;-83
2022/09/02 07:42:13;;;;;;;1.73;1.10;;;;;;;;;;5043672;28;20178;-80
2022/09/02 07:44:40;;;;;;;1.00;0.90;;;;;;;;;;5057911;28;20048;-81
2022/09/02 07:47:06;;;;;;;1.48;1.02;;;;;;;;;;5032011;28;20131;-80
2022/09/02 07:49:32;;;;;;;1.35;1.05;;;;;;;;;;5038867;28;20049;-81
2022/09/02 07:51:58;;;;;;;2.30;0.82;;;;;;;;;;5061269;28;20045;-81
2022/09/02 07:54:25;;;;;;;3.53;1.92;;;;;;;;;;5055401;28;20044;-82
2022/09/02 07:56:59;;;;;;;3.55;1.23;;;;;;;;;;5045514;28;20179;-82
2022/09/02 07:59:25;;;;;;;1.90;1.20;;;;;;;;;;5028597;28;20041;-87
2022/09/02 08:01:51;;;;;;;2.33;1.17;;;;;;;;;;5058108;28;20045;-87
2022/09/02 08:04:18;;;;;;;5.53;1.48;;;;;;;;;;5059502;28;20056;-86
2022/09/02 08:06:45;;;;;;;2.92;1.10;;;;;;;;;;5056047;28;20123;-86
2022/09/02 08:09:11;;;;;;;3.47;1.10;;;;;;;;;;5056353;28;20061;-86
2022/09/02 08:11:38;;;;;;;2.35;1.23;;;;;;;;;;5021111;28;20048;-81
2022/09/02 08:14:06;;;;;;;3.05;1.33;;;;;;;;;;5022039;28;20792;-84
2022/09/02 08:16:32;;;;;;;1.00;0.90;;;;;;;;;;5043758;28;20059;-82
2022/09/02 08:18:58;;;;;;;0.95;0.90;;;;;;;;;;5039502;28;20095;-85
2022/09/02 08:21:24;;;;;;;7.22;1.10;;;;;;;;;;5055715;28;20056;-86
2022/09/02 08:23:50;;;;;;;1.73;1.00;;;;;;;;;;5034333;28;20060;-84
2022/09/02 08:26:17;;;;;;;3.08;1.08;;;;;;;;;;5038657;28;20088;-86
2022/09/02 08:28:43;;;;;;;7.35;1.20;;;;;;;;;;5074817;28;20051;-79
2022/09/02 08:31:09;;;;;;;2.90;1.00;;;;;;;;;;5117494;27;20412;-76
2022/09/02 08:33:36;;;;;;;3.42;1.77;;;;;;;;;;5117180;27;20093;-76
2022/09/02 08:36:07;;;;;;;1.52;0.90;;;;;;;;;;5101593;28;20047;-76
2022/09/02 08:38:33;;;;;;;1.98;1.00;;;;;;;;;;5078106;28;20133;-82
2022/09/02 08:41:00;;;;;;;1.58;1.00;;;;;;;;;;5079233;28;20047;-82
2022/09/02 08:43:41;;;;;;;1.75;1.20;;;;;;;;;;5086812;28;20123;-82
2022/09/02 08:46:10;;;;;;;5.20;1.00;;;;;;;;;;5080446;28;20043;-81
2022/09/02 08:48:43;;;;;;;3.53;1.35;;;;;;;;;;5079877;28;20036;-81
2022/09/02 08:51:12;;;;;;;2.65;1.00;;;;;;;;;;5081981;28;20484;-81
2022/09/02 08:53:41;;;;;;;2.13;1.02;;;;;;;;;;5123577;27;20052;-81
2022/09/02 08:56:11;;;;;;;1.75;1.20;;;;;;;;;;5084417;28;20071;-82
2022/09/02 08:58:42;;;;;;;2.03;1.05;;;;;;;;;;5087172;28;20388;-80
2022/09/02 09:01:27;;;;;;;0.90;0.70;;;;;;;;;;5123264;27;20116;-82
2022/09/02 09:04:09;;;;;;;0.90;0.73;;;;;;;;;;5076598;28;20059;-78
2022/09/02 09:06:57;;;;;;;2.05;1.00;;;;;;;;;;5071415;28;20501;-80
2022/09/02 09:09:49;;;;;;;1.25;0.73;;;;;;;;;;5089230;28;20144;-78
2022/09/02 09:12:22;;;;;;;2.03;1.10;;;;;;;;;;5067986;28;20067;-79
2022/09/02 09:14:51;;;;;;;3.15;1.00;;;;;;;;;;5114445;27;20059;-79
2022/09/02 09:17:38;;;;;;;1.58;1.10;;;;;;;;;;5078778;28;20478;-79
2022/09/02 09:20:07;;;;;;;3.45;0.93;;;;;;;;;;5058574;28;20048;-79
2022/09/02 09:22:36;;;;;;;2.75;1.00;;;;;;;;;;5090234;28;20037;-80
2022/09/02 09:25:06;;;;;;;1.50;0.75;;;;;;;;;;5072115;28;20093;-79
2022/09/02 09:27:32;;;;;;;2.40;0.90;;;;;;;;;;5090538;28;20135;-79
2022/09/02 09:30:00;;;;;;;2.05;0.95;;;;;;;;;;5072285;28;20039;-79
2022/09/02 09:32:34;;;;;;;0.85;0.80;;;;;;;;;;5080012;28;20495;-79
2022/09/02 09:35:07;;;;;;;1.52;0.85;;;;;;;;;;5092701;28;20703;-79
2022/09/02 09:37:47;;;;;;;2.85;0.98;;;;;;;;;;5092485;28;20048;-79
2022/09/02 09:40:20;;;;;;;2.17;1.02;;;;;;;;;;5092819;28;20419;-79
2022/09/02 09:42:47;;;;;;;1.50;0.88;;;;;;;;;;5092428;28;20544;-78
2022/09/02 09:45:21;;;;;;;1.95;0.80;;;;;;;;;;5111096;28;20040;-78
2022/09/02 09:48:06;;;;;;;1.50;0.82;;;;;;;;;;5091501;28;20065;-78
2022/09/02 09:50:32;;;;;;;1.95;0.70;;;;;;;;;;5127170;28;20523;-78
2022/09/02 09:53:17;;;;;;;3.75;1.00;;;;;;;;;;5109462;28;20494;-78
2022/09/02 09:56:00;;;;;;;1.60;0.85;;;;;;;;;;5123745;28;20048;-78
2022/09/02 09:58:33;;;;;;;1.13;0.80;;;;;;;;;;5092923;28;20120;-78
2022/09/02 10:01:10;;;;;;;7.55;0.85;;;;;;;;;;5125257;28;20048;-79
2022/09/02 10:03:38;;;;;;;2.92;0.70;;;;;;;;;;5072444;28;20399;-79
2022/09/02 10:06:17;;;;;;;2.05;1.00;;;;;;;;;;5089594;28;20080;-79
2022/09/02 10:08:50;;;;;;;1.63;0.73;;;;;;;;;;5064878;28;20472;-80
2022/09/02 10:11:20;;;;;;;5.22;0.95;;;;;;;;;;5092820;28;20043;-79
2022/09/02 10:13:46;;;;;;;1.60;0.90;;;;;;;;;;5092138;28;20507;-79
2022/09/02 10:16:18;;;;;;;7.03;0.60;;;;;;;;;;5091384;28;20138;-80
2022/09/02 10:18:53;;;;;;;3.25;0.90;;;;;;;;;;5072743;28;20051;-78
2022/09/02 10:21:32;;;;;;;1.40;0.70;;;;;;;;;;5072980;28;20048;-76
2022/09/02 10:24:02;;;;;;;0.50;0.45;;;;;;;;;;5091026;28;20044;-76
2022/09/02 10:26:28;;;;;;;1.08;0.70;;;;;;;;;;5126168;28;20104;-76
2022/09/02 10:29:07;;;;;;;2.10;0.90;;;;;;;;;;5091807;28;20051;-76
2022/09/02 10:32:03;;;;;;;4.65;0.70;;;;;;;;;;5125568;28;20238;-77
2022/09/02 10:34:32;;;;;;;1.55;0.70;;;;;;;;;;5020383;28;20048;-76
2022/09/02 10:37:16;;;;;;;6.85;0.85;;;;;;;;;;5091524;28;20047;-76
2022/09/02 10:39:55;;;;;;;2.70;0.93;;;;;;;;;;5095169;28;20046;-76
2022/09/02 10:42:30;;;;;;;2.67;0.90;;;;;;;;;;5092506;28;20109;-76
2022/09/02 10:45:15;;;;;;;0.85;0.70;;;;;;;;;;5083790;28;20047;-76
2022/09/02 10:47:41;;;;;;;5.60;1.02;;;;;;;;;;5128471;27;20055;-76
2022/09/02 10:50:26;;;;;;;1.13;0.80;;;;;;;;;;5095581;28;20055;-76
2022/09/02 10:52:56;;;;;;;2.28;0.73;;;;;;;;;;5094164;28;20078;-76
2022/09/02 10:56:00;;;;;;;1.05;0.50;;;;;;;;;;5094751;28;20370;-76
2022/09/02 10:58:37;;;;;;;2.28;0.85;;;;;;;;;;5030495;28;20128;-76
2022/09/02 11:01:03;;;;;;;2.47;0.60;;;;;;;;;;5027293;28;20041;-73
2022/09/02 11:03:35;;;;;;;0.98;0.70;;;;;;;;;;5061586;28;20659;-74
2022/09/02 11:06:07;;;;;;;5.05;1.05;;;;;;;;;;5105003;28;20044;-76
2022/09/02 11:08:39;;;;;;;1.75;0.90;;;;;;;;;;5075818;28;20047;-77
2022/09/02 11:11:22;;;;;;;5.70;0.98;;;;;;;;;;5097067;28;20044;-76
2022/09/02 11:14:06;;;;;;;0.80;0.65;;;;;;;;;;5120549;27;20054;-79
2022/09/02 11:16:35;;;;;;;1.65;0.90;;;;;;;;;;5084407;28;20112;-76
2022/09/02 11:19:07;;;;;;;2.53;0.63;;;;;;;;;;5077198;28;20060;-76
2022/09/02 11:21:52;;;;;;;3.17;0.93;;;;;;;;;;5074709;28;20054;-77
2022/09/02 11:24:39;;;;;;;1.73;0.82;;;;;;;;;;5073776;28;20044;-77
2022/09/02 11:27:29;;;;;;;3.03;0.80;;;;;;;;;;5079342;28;20059;-77
2022/09/02 11:29:58;;;;;;;0.50;0.50;;;;;;;;;;5117588;27;20052;-77
2022/09/02 11:32:24;;;;;;;2.78;0.80;;;;;;;;;;5056125;28;20044;-77
2022/09/02 11:34:51;;;;;;;1.38;0.73;;;;;;;;;;5074237;28;20088;-78
2022/09/02 11:37:28;;;;;;;0.68;0.68;;;;;;;;;;5065265;28;20086;-78
2022/09/02 11:39:58;;;;;;;1.48;0.80;;;;;;;;;;5076521;28;20497;-77
2022/09/02 11:42:36;;;;;;;2.35;0.90;;;;;;;;;;5108659;28;20109;-79
2022/09/02 11:45:22;;;;;;;0.90;0.77;;;;;;;;;;5118034;27;20044;-77
2022/09/02 11:47:53;;;;;;;0.82;0.82;;;;;;;;;;5098792;28;20109;-78
2022/09/02 11:50:49;;;;;;;2.83;1.08;;;;;;;;;;5108443;28;20119;-78
2022/09/02 11:53:17;;;;;;;4.28;0.90;;;;;;;;;;5021490;28;20126;-80
2022/09/02 11:55:55;;;;;;;2.58;0.90;;;;;;;;;;5077846;28;20044;-79
2022/09/02 11:58:29;;;;;;;1.25;0.85;;;28.70;46.60;;;;;;5108224;28;20064;-78
2022/09/02 12:00:55;;;;;;;1.38;0.82;;;27.80;46.70;;;;;;5098034;28;20499;-84
2022/09/02 12:03:28;;;;;;;0.80;0.80;;;27.30;48.30;;;;;;5086130;28;20052;-78
2022/09/02 12:06:08;;;;;;;0.90;0.73;;;27.20;48.50;;;;;;5074354;28;20086;-83
2022/09/02 12:08:35;;;;;;;1.25;0.82;;;;;;;;;;5091839;28;20081;-81
2022/09/02 12:11:05;;;;;;;2.50;0.93;;;;;;;;;;5073079;28;20048;-81
2022/09/02 12:13:42;;;;;;;0.98;0.68;;;;;;;;;;5091844;28;20083;-81
2022/09/02 12:16:14;;;;;;;2.35;0.98;;;;;;;;;;5072331;28;20082;-81
2022/09/02 12:18:44;;;;;;;1.52;0.90;;;;;;;;;;5070564;28;20139;-80
2022/09/02 12:21:15;;;;;;;3.05;1.10;;;;;;;;;;5087307;28;20104;-80
2022/09/02 12:23:56;;;;;;;1.83;1.00;;;;;;;;;;5100395;28;20093;-81
2022/09/02 12:26:22;;;;;;;2.83;0.90;;;;;;;;;;5072119;28;20139;-81
2022/09/02 12:28:49;;;;;;;7.18;1.33;;;;;;;;;;5114236;27;20044;-81
2022/09/02 12:31:17;;;;;;;1.40;0.90;;;;;;;;;;5097181;28;20044;-80
2022/09/02 12:33:53;;;;;;;1.20;0.80;;;;;;;;;;5076378;28;20412;-81
2022/09/02 12:36:41;;;;;;;1.25;0.90;;;;;;;;;;5089309;28;20071;-81
2022/09/02 12:39:26;;;;;;;2.65;0.90;;;;;;;;;;5071946;28;20074;-80
2022/09/02 12:42:11;;;;;;;2.85;1.00;;;;;;;;;;5072392;28;20560;-80
2022/09/02 12:44:38;;;;;;;1.13;0.82;;;;;;;;;;5091269;28;20055;-84
2022/09/02 12:47:25;;;;;;;1.70;0.90;;;;;;;;;;5119694;27;20102;-80
2022/09/02 12:49:51;;;;;;;3.92;1.02;;;;;;;;;;5077585;28;20059;-81
2022/09/02 12:52:46;;;;;;;2.25;0.95;;;;;;;;;;5082353;28;20036;-81
2022/09/02 12:55:15;;;;;;;3.45;0.80;;;;;;;;;;5068211;28;20063;-81
2022/09/02 12:57:43;;;;;;;1.00;0.80;;;;;;;;;;5073205;28;20106;-88
2022/09/02 13:00:13;;;;;;;1.77;0.90;;;;;;;;;;5089333;28;20044;-87
2022/09/02 13:03:02;;;;;;;1.98;1.00;;;;;;;;;;5090106;28;20570;-87
2022/09/02 13:05:38;;;;;;;1.88;1.00;;;;;;;;;;5075617;28;20047;-88
2022/09/02 13:08:17;;;;;;;1.75;0.70;;;;;;;;;;5116563;27;20085;-88
2022/09/02 13:10:58;;;;;;;1.40;0.90;;;;;;;;;;5085752;28;20051;-88
2022/09/02 13:13:42;;;;;;;2.00;0.90;;;;;;;;;;5087831;28;20054;-89
2022/09/02 13:16:47;;;;;;;4.75;0.90;;;;;;;;;;5089722;28;20090;-82
2022/09/02 13:19:18;;;;;;;1.10;0.82;;;;;;;;;;5015106;28;20074;-82
2022/09/02 13:21:49;;;;;;;1.67;0.80;;;;;;;;;;5036965;28;20057;-87
2022/09/02 13:24:15;;;;;;;0.98;0.80;;;;;;;;;;5055178;28;20066;-86
2022/09/02 13:27:03;;;;;;;0.73;0.70;;;29.70;44.10;;;;;;5090615;28;20052;-89
2022/09/02 13:29:47;;;;;;;2.40;0.88;;;29.70;44.00;;;;;;5076286;28;20047;-89
2022/09/02 13:32:21;;;;;;;2.88;0.80;;;29.80;44.90;;;;;;5075202;28;20040;-90
2022/09/02 13:34:49;;;;;;;1.08;0.80;;;29.70;45.40;;;;;;5102039;28;20059;-91
2022/09/02 13:37:34;;;;;;;1.33;1.00;;;29.70;45.10;;;;;;5090289;28;20048;-93
2022/09/02 13:40:20;;;;;;;2.05;0.90;;;29.90;46.50;;;;;;5097516;28;20040;-92
2022/09/02 13:42:47;;;;;;;;;;;31.00;44.60;;;;;;5074287;28;20055;-92
2022/09/02 13:45:20;;;;;;;2.78;0.95;;;31.00;43.30;;;;;;5071347;28;20292;-93
2022/09/02 13:47:51;;;;;;;1.98;1.13;;;30.60;44.10;;;;;;5083011;28;20047;-89
2022/09/02 13:50:20;;;;;;;2.53;0.90;;;30.60;44.10;;;;;;5073181;28;20059;-88
2022/09/02 13:53:07;;;;;;;1.75;0.75;;;30.60;43.90;;;;;;5107682;28;20205;-86
2022/09/02 13:55:34;;;;;;;1.05;0.95;;;;;;;;;;5074407;28;20051;-89
2022/09/02 13:58:02;;;;;;;1.70;1.10;;;;;;;;;;5088072;28;20036;-86
2022/09/02 14:00:33;;;;;;;1.33;0.85;;;;;;;;;;5082534;28;20035;-85
2022/09/02 14:03:04;;;;;;;3.10;1.00;;;;;;;;;;5103832;28;20078;-87
2022/09/02 14:05:31;;;;;;;0.73;0.70;;;;;;;;;;5087674;28;20047;-86
2022/09/02 14:07:58;;;;;;;1.23;0.98;;;;;;;;;;5080845;28;20395;-87
2022/09/02 14:10:27;;;;;;;1.13;0.80;;;28.90;45.30;;;;;;5094538;28;20059;-87
2022/09/02 14:12:55;;;;;;;1.40;0.98;;;28.80;44.10;;;;;;5090334;28;20388;-86
2022/09/02 14:15:28;;;;;;;1.98;1.00;;;28.60;45.50;;;;;;5104201;28;20150;-87
2022/09/02 14:18:07;;;;;;;1.25;0.90;;;28.90;45.20;;;;;;5096593;28;20096;-86
2022/09/02 14:20:33;;;;;;;1.83;0.88;;;28.10;45.50;;;;;;5096836;28;20377;-85
2022/09/02 14:22:59;;;;;;;1.40;0.90;;;28.10;46.00;;;;;;5130614;27;20059;-85
2022/09/02 14:25:28;;;;;;;1.38;0.93;;;28.80;45.90;;;;;;5095928;28;20450;-86
2022/09/02 14:28:01;;;;;;;2.15;1.00;;;28.70;45.80;;;;;;5099406;28;20040;-86
2022/09/02 14:30:35;;;;;;;3.38;0.90;;;28.80;46.70;;;;;;5093248;28;20048;-86
2022/09/02 14:33:16;;;;;;;1.00;0.70;;;28.80;45.40;;;;;;5094080;28;20401;-84
2022/09/02 14:36:19;;;;;;;1.08;0.95;;;29.20;45.30;;;;;;5076266;28;20066;-83
2022/09/02 14:38:45;;;;;;;1.73;1.00;;;29.00;44.60;;;;;;5068531;28;20165;-81
2022/09/02 14:41:16;;;;;;;1.45;1.10;;;29.00;44.90;;;;;;5062414;28;20493;-81
2022/09/02 14:43:48;;;;;;;1.40;0.90;;;29.50;45.60;;;;;;5072821;28;20127;-83
2022/09/02 14:46:22;;;;;;;2.15;1.25;;;30.00;43.70;;;;;;5109937;27;20044;-85
2022/09/02 14:49:03;;;;;;;2.13;1.00;;;29.50;43.60;;;;;;5076099;28;20500;-86
2022/09/02 14:51:39;;;;;;;0.70;0.70;;;29.20;44.70;;;;;;5088897;28;20078;-85
2022/09/02 14:54:06;;;;;;;3.70;0.73;;;29.40;45.90;;;;;;5071444;28;20044;-81
2022/09/02 14:56:45;;;;;;;3.08;0.85;;;29.60;44.60;;;;;;5071657;28;20048;-82
2022/09/02 14:59:10;;;;;;;0.57;0.50;;;28.90;45.90;;;;;;5070308;28;20060;-84
2022/09/02 15:01:42;;;;;;;0.98;0.80;;;29.00;45.60;;;;;;5108729;27;20511;-83
2022/09/02 15:04:09;;;;;;;1.77;0.90;;;29.10;47.30;;;;;;5086209;28;20109;-82